sensor_id;sensor_type;location;lat;lon;timestamp;pressure;altitude;pressure_sealevel;temperature;humidity
10720;BME280;5411;58.386;15.560;2023-08-06T00:00:59;100210.72;;;12.68;100.00
10720;BME280;5411;58.386;15.560;2023-08-06T00:03:28;100205.59;;;12.67;100.00
10720;BME280;5411;58.386;15.560;2023-08-06T00:05:56;100214.09;;;12.64;100.00
10720;BME280;5411;58.386;15.560;2023-08-06T00:08:26;100214.75;;;12.59;100.00
10720;BME280;5411;58.386;15.560;2023-08-06T00:10:54;100206.31;;;12.56;100.00
10720;BME280;5411;58.386;15.560;2023-08-06T00:13:22;100206.53;;;12.54;100.00
10720;BME280;5411;58.386;15.560;2023-08-06T00:15:53;100204.28;;;12.51;100.00
10720;BME280;5411;58.386;15.560;2023-08-06T00:18:21;100214.44;;;12.49;100.00
10720;BME280;5411;58.386;15.560;2023-08-06T00:20:50;100208.44;;;12.47;100.00
10720;BME280;5411;58.386;15.560;2023-08-06T00:23:20;100213.44;;;12.43;100.00
10720;BME280;5411;58.386;15.560;2023-08-06T00:25:50;100210.97;;;12.42;100.00
10720;BME280;5411;58.386;15.560;2023-08-06T00:28:18;100210.56;;;12.38;100.00
10720;BME280;5411;58.386;15.560;2023-08-06T00:30:52;100212.88;;;12.35;100.00
10720;BME280;5411;58.386;15.560;2023-08-06T00:33:21;100207.13;;;12.31;100.00
10720;BME280;5411;58.386;15.560;2023-08-06T00:35:50;100211.66;;;12.31;100.00
10720;BME280;5411;58.386;15.560;2023-08-06T00:38:19;100206.94;;;12.26;100.00
10720;BME280;5411;58.386;15.560;2023-08-06T00:40:47;100213.94;;;12.27;100.00
10720;BME280;5411;58.386;15.560;2023-08-06T00:43:17;100213.13;;;12.27;100.00
10720;BME280;5411;58.386;15.560;2023-08-06T00:45:46;100212.31;;;12.26;100.00
10720;BME280;5411;58.386;15.560;2023-08-06T00:48:15;100208.22;;;12.24;100.00
10720;BME280;5411;58.386;15.560;2023-08-06T00:50:44;100206.78;;;12.21;100.00
10720;BME280;5411;58.386;15.560;2023-08-06T00:53:12;100207.22;;;12.18;100.00
10720;BME280;5411;58.386;15.560;2023-08-06T00:55:41;100208.47;;;12.16;100.00
10720;BME280;5411;58.386;15.560;2023-08-06T00:58:18;100203.31;;;12.14;100.00
10720;BME280;5411;58.386;15.560;2023-08-06T01:00:47;100202.72;;;12.12;100.00
10720;BME280;5411;58.386;15.560;2023-08-06T01:03:15;100193.25;;;12.09;100.00
10720;BME280;5411;58.386;15.560;2023-08-06T01:05:47;100200.91;;;12.06;100.00
10720;BME280;5411;58.386;15.560;2023-08-06T01:08:29;100202.16;;;12.03;100.00
10720;BME280;5411;58.386;15.560;2023-08-06T01:11:08;100199.91;;;12.00;100.00
10720;BME280;5411;58.386;15.560;2023-08-06T01:13:45;100198.25;;;11.99;100.00
10720;BME280;5411;58.386;15.560;2023-08-06T01:16:17;100199.53;;;11.97;100.00
10720;BME280;5411;58.386;15.560;2023-08-06T01:18:47;100200.78;;;11.94;100.00
10720;BME280;5411;58.386;15.560;2023-08-06T01:21:18;100195.84;;;11.91;100.00
10720;BME280;5411;58.386;15.560;2023-08-06T01:23:47;100193.38;;;11.90;100.00
10720;BME280;5411;58.386;15.560;2023-08-06T01:26:24;100195.44;;;11.88;100.00
10720;BME280;5411;58.386;15.560;2023-08-06T01:29:01;100198.94;;;11.88;100.00
10720;BME280;5411;58.386;15.560;2023-08-06T01:31:37;100196.25;;;11.88;100.00
10720;BME280;5411;58.386;15.560;2023-08-06T01:34:10;100183.28;;;11.85;100.00
10720;BME280;5411;58.386;15.560;2023-08-06T01:36:40;100192.41;;;11.84;100.00
10720;BME280;5411;58.386;15.560;2023-08-06T01:39:09;100194.47;;;11.82;100.00
10720;BME280;5411;58.386;15.560;2023-08-06T01:41:38;100190.75;;;11.83;100.00
10720;BME280;5411;58.386;15.560;2023-08-06T01:44:06;100182.31;;;11.80;100.00
10720;BME280;5411;58.386;15.560;2023-08-06T01:46:36;100184.16;;;11.79;100.00
10720;BME280;5411;58.386;15.560;2023-08-06T01:49:04;100178.19;;;11.77;100.00
10720;BME280;5411;58.386;15.560;2023-08-06T01:51:33;100180.03;;;11.76;100.00
10720;BME280;5411;58.386;15.560;2023-08-06T01:54:03;100175.91;;;11.74;100.00
10720;BME280;5411;58.386;15.560;2023-08-06T01:56:31;100183.31;;;11.72;100.00
10720;BME280;5411;58.386;15.560;2023-08-06T01:59:00;100180.66;;;11.72;100.00
10720;BME280;5411;58.386;15.560;2023-08-06T02:01:31;100170.38;;;11.69;100.00
10720;BME280;5411;58.386;15.560;2023-08-06T02:03:59;100177.81;;;11.67;100.00
10720;BME280;5411;58.386;15.560;2023-08-06T02:06:27;100169.97;;;11.65;100.00
10720;BME280;5411;58.386;15.560;2023-08-06T02:08:58;100180.50;;;11.67;100.00
10720;BME280;5411;58.386;15.560;2023-08-06T02:11:28;100182.75;;;11.63;100.00
10720;BME280;5411;58.386;15.560;2023-08-06T02:13:57;100175.97;;;11.61;100.00
10720;BME280;5411;58.386;15.560;2023-08-06T02:16:25;100182.81;;;11.57;100.00
10720;BME280;5411;58.386;15.560;2023-08-06T02:18:53;100183.03;;;11.55;100.00
10720;BME280;5411;58.386;15.560;2023-08-06T02:21:22;100180.56;;;11.54;100.00
10720;BME280;5411;58.386;15.560;2023-08-06T02:23:50;100187.56;;;11.55;100.00
10720;BME280;5411;58.386;15.560;2023-08-06T02:26:18;100194.78;;;11.54;100.00
10720;BME280;5411;58.386;15.560;2023-08-06T02:28:48;100188.81;;;11.52;100.00
10720;BME280;5411;58.386;15.560;2023-08-06T02:31:19;100194.38;;;11.51;100.00
10720;BME280;5411;58.386;15.560;2023-08-06T02:33:48;100196.22;;;11.50;100.00
10720;BME280;5411;58.386;15.560;2023-08-06T02:36:18;100201.59;;;11.50;100.00
10720;BME280;5411;58.386;15.560;2023-08-06T02:38:46;100210.88;;;11.48;100.00
10720;BME280;5411;58.386;15.560;2023-08-06T02:41:15;100223.44;;;11.47;100.00
10720;BME280;5411;58.386;15.560;2023-08-06T02:43:43;100220.97;;;11.46;100.00
10720;BME280;5411;58.386;15.560;2023-08-06T02:46:13;100216.66;;;11.45;100.00
10720;BME280;5411;58.386;15.560;2023-08-06T02:48:42;100220.38;;;11.43;100.00
10720;BME280;5411;58.386;15.560;2023-08-06T02:51:13;100224.91;;;11.43;100.00
10720;BME280;5411;58.386;15.560;2023-08-06T02:53:41;100229.44;;;11.42;100.00
10720;BME280;5411;58.386;15.560;2023-08-06T02:56:10;100230.47;;;11.41;100.00
10720;BME280;5411;58.386;15.560;2023-08-06T02:58:38;100228.00;;;11.40;100.00
10720;BME280;5411;58.386;15.560;2023-08-06T03:01:07;100234.19;;;11.40;100.00
10720;BME280;5411;58.386;15.560;2023-08-06T03:03:36;100229.88;;;11.39;100.00
10720;BME280;5411;58.386;15.560;2023-08-06T03:06:05;100227.19;;;11.39;100.00
10720;BME280;5411;58.386;15.560;2023-08-06T03:08:33;100218.53;;;11.37;100.00
10720;BME280;5411;58.386;15.560;2023-08-06T03:11:01;100213.38;;;11.36;100.00
10720;BME280;5411;58.386;15.560;2023-08-06T03:13:30;100200.41;;;11.33;100.00
10720;BME280;5411;58.386;15.560;2023-08-06T03:15:59;100210.09;;;11.34;100.00
10720;BME280;5411;58.386;15.560;2023-08-06T03:18:29;100209.88;;;11.35;100.00
10720;BME280;5411;58.386;15.560;2023-08-06T03:20:58;100206.78;;;11.38;100.00
10720;BME280;5411;58.386;15.560;2023-08-06T03:23:27;100206.38;;;11.41;100.00
10720;BME280;5411;58.386;15.560;2023-08-06T03:25:55;100205.72;;;11.46;100.00
10720;BME280;5411;58.386;15.560;2023-08-06T03:28:23;100202.41;;;11.51;100.00
10720;BME280;5411;58.386;15.560;2023-08-06T03:30:59;100205.06;;;11.57;100.00
10720;BME280;5411;58.386;15.560;2023-08-06T03:33:28;100201.72;;;11.62;100.00
10720;BME280;5411;58.386;15.560;2023-08-06T03:35:56;100200.28;;;11.66;100.00
10720;BME280;5411;58.386;15.560;2023-08-06T03:38:26;100194.50;;;11.69;100.00
10720;BME280;5411;58.386;15.560;2023-08-06T03:41:00;100196.97;;;11.70;100.00
10720;BME280;5411;58.386;15.560;2023-08-06T03:43:29;100178.22;;;11.70;100.00
10720;BME280;5411;58.386;15.560;2023-08-06T03:45:57;100175.06;;;11.73;100.00
10720;BME280;5411;58.386;15.560;2023-08-06T03:48:26;100172.19;;;11.75;100.00
10720;BME280;5411;58.386;15.560;2023-08-06T03:50:55;100179.22;;;11.76;100.00
10720;BME280;5411;58.386;15.560;2023-08-06T03:53:23;100174.25;;;11.80;100.00
10720;BME280;5411;58.386;15.560;2023-08-06T03:55:54;100174.88;;;11.82;100.00
10720;BME280;5411;58.386;15.560;2023-08-06T03:58:27;100181.22;;;11.87;100.00
10720;BME280;5411;58.386;15.560;2023-08-06T04:01:00;100174.38;;;11.91;100.00
10720;BME280;5411;58.386;15.560;2023-08-06T04:03:29;100178.66;;;11.99;100.00
10720;BME280;5411;58.386;15.560;2023-08-06T04:05:57;100178.03;;;12.03;100.00
10720;BME280;5411;58.386;15.560;2023-08-06T04:08:29;100173.44;;;12.10;100.00
10720;BME280;5411;58.386;15.560;2023-08-06T04:10:58;100165.34;;;12.17;100.00
10720;BME280;5411;58.386;15.560;2023-08-06T04:13:27;100172.75;;;12.22;100.00
10720;BME280;5411;58.386;15.560;2023-08-06T04:16:03;100168.56;;;12.26;100.00
10720;BME280;5411;58.386;15.560;2023-08-06T04:18:44;100172.25;;;12.31;100.00
10720;BME280;5411;58.386;15.560;2023-08-06T04:21:12;100173.81;;;12.39;100.00
10720;BME280;5411;58.386;15.560;2023-08-06T04:23:41;100182.88;;;12.44;100.00
10720;BME280;5411;58.386;15.560;2023-08-06T04:26:10;100190.28;;;12.49;100.00
10720;BME280;5411;58.386;15.560;2023-08-06T04:28:40;100181.31;;;12.55;100.00
10720;BME280;5411;58.386;15.560;2023-08-06T04:31:08;100180.47;;;12.61;100.00
10720;BME280;5411;58.386;15.560;2023-08-06T04:33:37;100180.38;;;12.68;100.00
10720;BME280;5411;58.386;15.560;2023-08-06T04:36:05;100182.19;;;12.74;100.00
10720;BME280;5411;58.386;15.560;2023-08-06T04:38:33;100178.84;;;12.78;100.00
10720;BME280;5411;58.386;15.560;2023-08-06T04:41:06;100175.28;;;12.84;100.00
10720;BME280;5411;58.386;15.560;2023-08-06T04:43:36;100172.75;;;12.90;100.00
10720;BME280;5411;58.386;15.560;2023-08-06T04:46:05;100178.25;;;12.95;100.00
10720;BME280;5411;58.386;15.560;2023-08-06T04:48:34;100181.50;;;13.03;100.00
10720;BME280;5411;58.386;15.560;2023-08-06T04:51:03;100177.06;;;13.09;100.00
10720;BME280;5411;58.386;15.560;2023-08-06T04:53:31;100185.50;;;13.12;100.00
10720;BME280;5411;58.386;15.560;2023-08-06T04:56:02;100180.56;;;13.16;100.00
10720;BME280;5411;58.386;15.560;2023-08-06T04:58:30;100186.66;;;13.23;100.00
10720;BME280;5411;58.386;15.560;2023-08-06T05:01:00;100182.03;;;13.30;100.00
10720;BME280;5411;58.386;15.560;2023-08-06T05:03:32;100175.31;;;13.39;100.00
10720;BME280;5411;58.386;15.560;2023-08-06T05:06:01;100177.56;;;13.42;100.00
10720;BME280;5411;58.386;15.560;2023-08-06T05:08:29;100172.53;;;13.46;100.00
10720;BME280;5411;58.386;15.560;2023-08-06T05:10:57;100168.94;;;13.52;100.00
10720;BME280;5411;58.386;15.560;2023-08-06T05:13:28;100160.22;;;13.57;100.00
10720;BME280;5411;58.386;15.560;2023-08-06T05:15:57;100159.66;;;13.66;100.00
10720;BME280;5411;58.386;15.560;2023-08-06T05:18:27;100159.09;;;13.76;100.00
10720;BME280;5411;58.386;15.560;2023-08-06T05:20:57;100158.53;;;13.85;100.00
10720;BME280;5411;58.386;15.560;2023-08-06T05:23:28;100161.50;;;13.96;100.00
10720;BME280;5411;58.386;15.560;2023-08-06T05:26:01;100156.03;;;14.02;100.00
10720;BME280;5411;58.386;15.560;2023-08-06T05:28:30;100151.97;;;14.11;100.00
10720;BME280;5411;58.386;15.560;2023-08-06T05:30:58;100160.16;;;14.16;100.00
10720;BME280;5411;58.386;15.560;2023-08-06T05:33:28;100152.31;;;14.26;100.00
10720;BME280;5411;58.386;15.560;2023-08-06T05:35:56;100156.34;;;14.36;100.00
10720;BME280;5411;58.386;15.560;2023-08-06T05:38:25;100157.19;;;14.48;100.00
10720;BME280;5411;58.386;15.560;2023-08-06T05:40:53;100156.38;;;14.59;100.00
10720;BME280;5411;58.386;15.560;2023-08-06T05:43:22;100153.22;;;14.74;100.00
10720;BME280;5411;58.386;15.560;2023-08-06T05:45:50;100154.38;;;14.89;100.00
10720;BME280;5411;58.386;15.560;2023-08-06T05:48:18;100141.47;;;15.03;100.00
10720;BME280;5411;58.386;15.560;2023-08-06T05:50:51;100136.38;;;15.18;100.00
10720;BME280;5411;58.386;15.560;2023-08-06T05:53:20;100141.50;;;15.31;100.00
10720;BME280;5411;58.386;15.560;2023-08-06T05:55:48;100139.91;;;15.47;100.00
10720;BME280;5411;58.386;15.560;2023-08-06T05:58:19;100135.66;;;15.63;100.00
10720;BME280;5411;58.386;15.560;2023-08-06T06:00:52;100141.34;;;15.78;100.00
10720;BME280;5411;58.386;15.560;2023-08-06T06:03:21;100126.72;;;15.91;100.00
10720;BME280;5411;58.386;15.560;2023-08-06T06:05:52;100133.22;;;16.07;100.00
10720;BME280;5411;58.386;15.560;2023-08-06T06:08:21;100133.47;;;16.22;100.00
10720;BME280;5411;58.386;15.560;2023-08-06T06:10:49;100139.03;;;16.32;100.00
10720;BME280;5411;58.386;15.560;2023-08-06T06:13:17;100133.69;;;16.54;100.00
10720;BME280;5411;58.386;15.560;2023-08-06T06:15:46;100130.50;;;16.73;100.00
10720;BME280;5411;58.386;15.560;2023-08-06T06:18:15;100111.34;;;16.97;100.00
10720;BME280;5411;58.386;15.560;2023-08-06T06:20:49;100119.16;;;17.15;100.00
10720;BME280;5411;58.386;15.560;2023-08-06T06:23:17;100103.66;;;17.32;100.00
10720;BME280;5411;58.386;15.560;2023-08-06T06:25:48;100095.44;;;17.44;100.00
10720;BME280;5411;58.386;15.560;2023-08-06T06:28:18;100096.94;;;17.62;100.00
10720;BME280;5411;58.386;15.560;2023-08-06T06:30:47;100093.00;;;17.69;100.00
10720;BME280;5411;58.386;15.560;2023-08-06T06:33:19;100084.91;;;17.74;99.35
10720;BME280;5411;58.386;15.560;2023-08-06T06:35:50;100093.91;;;17.80;98.71
10720;BME280;5411;58.386;15.560;2023-08-06T06:38:19;100090.69;;;17.83;98.15
10720;BME280;5411;58.386;15.560;2023-08-06T06:40:53;100085.94;;;17.95;98.35
10720;BME280;5411;58.386;15.560;2023-08-06T06:43:22;100087.13;;;18.09;98.01
10720;BME280;5411;58.386;15.560;2023-08-06T06:45:52;100082.84;;;18.19;96.72
10720;BME280;5411;58.386;15.560;2023-08-06T06:48:25;100082.31;;;18.16;95.35
10720;BME280;5411;58.386;15.560;2023-08-06T06:51:02;100073.09;;;18.17;94.43
10720;BME280;5411;58.386;15.560;2023-08-06T06:53:31;100068.75;;;18.16;94.71
10720;BME280;5411;58.386;15.560;2023-08-06T06:56:04;100067.16;;;18.21;93.49
10720;BME280;5411;58.386;15.560;2023-08-06T06:58:33;100062.31;;;18.23;93.12
10720;BME280;5411;58.386;15.560;2023-08-06T07:01:04;100063.66;;;18.20;91.46
10720;BME280;5411;58.386;15.560;2023-08-06T07:03:34;100066.88;;;18.17;88.63
10720;BME280;5411;58.386;15.560;2023-08-06T07:06:03;100054.03;;;18.02;86.95
10720;BME280;5411;58.386;15.560;2023-08-06T07:08:32;100055.28;;;17.90;86.68
10720;BME280;5411;58.386;15.560;2023-08-06T07:11:05;100059.56;;;17.86;86.58
10720;BME280;5411;58.386;15.560;2023-08-06T07:13:34;100064.97;;;17.80;86.90
10720;BME280;5411;58.386;15.560;2023-08-06T07:16:05;100062.56;;;17.84;88.51
10720;BME280;5411;58.386;15.560;2023-08-06T07:18:37;100064.28;;;17.95;87.11
10720;BME280;5411;58.386;15.560;2023-08-06T07:21:07;100057.56;;;18.03;87.31
10720;BME280;5411;58.386;15.560;2023-08-06T07:23:35;100053.59;;;18.15;87.07
10720;BME280;5411;58.386;15.560;2023-08-06T07:26:03;100055.00;;;18.23;85.61
10720;BME280;5411;58.386;15.560;2023-08-06T07:28:31;100050.94;;;18.26;85.95
10720;BME280;5411;58.386;15.560;2023-08-06T07:30:59;100049.34;;;18.30;82.88
10720;BME280;5411;58.386;15.560;2023-08-06T07:33:28;100056.91;;;18.28;83.02
10720;BME280;5411;58.386;15.560;2023-08-06T07:35:56;100061.25;;;18.29;82.26
10720;BME280;5411;58.386;15.560;2023-08-06T07:38:26;100065.34;;;18.31;81.90
10720;BME280;5411;58.386;15.560;2023-08-06T07:40:54;100061.56;;;18.32;81.17
10720;BME280;5411;58.386;15.560;2023-08-06T07:43:25;100039.88;;;18.32;80.38
10720;BME280;5411;58.386;15.560;2023-08-06T07:45:53;100049.41;;;18.40;82.95
10720;BME280;5411;58.386;15.560;2023-08-06T07:48:21;100049.41;;;18.40;81.36
10720;BME280;5411;58.386;15.560;2023-08-06T07:50:51;100049.41;;;18.40;81.88
10720;BME280;5411;58.386;15.560;2023-08-06T07:53:22;100054.88;;;18.45;81.67
10720;BME280;5411;58.386;15.560;2023-08-06T07:55:55;100054.91;;;18.50;81.92
10720;BME280;5411;58.386;15.560;2023-08-06T07:58:24;100046.50;;;18.51;79.60
10720;BME280;5411;58.386;15.560;2023-08-06T08:00:55;100051.63;;;18.48;79.73
10720;BME280;5411;58.386;15.560;2023-08-06T08:03:23;100051.91;;;18.51;79.43
10720;BME280;5411;58.386;15.560;2023-08-06T08:05:54;100051.94;;;18.57;79.26
10720;BME280;5411;58.386;15.560;2023-08-06T08:08:27;100064.41;;;18.58;78.86
10720;BME280;5411;58.386;15.560;2023-08-06T08:11:03;100058.53;;;18.66;79.39
10720;BME280;5411;58.386;15.560;2023-08-06T08:13:33;100056.66;;;18.71;79.98
10720;BME280;5411;58.386;15.560;2023-08-06T08:16:02;100062.38;;;18.80;77.75
10720;BME280;5411;58.386;15.560;2023-08-06T08:18:31;100054.50;;;18.73;78.93
10720;BME280;5411;58.386;15.560;2023-08-06T08:20:59;100056.16;;;18.74;79.34
10720;BME280;5411;58.386;15.560;2023-08-06T08:23:28;100053.47;;;18.84;78.92
10720;BME280;5411;58.386;15.560;2023-08-06T08:25:59;100047.78;;;18.91;79.34
10720;BME280;5411;58.386;15.560;2023-08-06T08:28:29;100053.25;;;18.96;79.92
10720;BME280;5411;58.386;15.560;2023-08-06T08:30:58;100047.59;;;19.08;79.66
10720;BME280;5411;58.386;15.560;2023-08-06T08:33:26;100049.78;;;19.11;77.91
10720;BME280;5411;58.386;15.560;2023-08-06T08:35:55;100044.06;;;19.02;78.97
10720;BME280;5411;58.386;15.560;2023-08-06T08:38:23;100052.19;;;19.02;79.15
10720;BME280;5411;58.386;15.560;2023-08-06T08:40:54;100040.25;;;19.03;79.10
10720;BME280;5411;58.386;15.560;2023-08-06T08:43:24;100039.97;;;19.05;78.19
10720;BME280;5411;58.386;15.560;2023-08-06T08:45:55;100039.50;;;19.23;78.74
10720;BME280;5411;58.386;15.560;2023-08-06T08:48:27;100034.91;;;19.29;78.13
10720;BME280;5411;58.386;15.560;2023-08-06T08:51:04;100033.81;;;19.45;78.58
10720;BME280;5411;58.386;15.560;2023-08-06T08:53:35;100017.31;;;19.51;77.34
10720;BME280;5411;58.386;15.560;2023-08-06T08:56:11;100019.75;;;19.58;77.35
10720;BME280;5411;58.386;15.560;2023-08-06T08:58:42;100015.44;;;19.57;77.13
10720;BME280;5411;58.386;15.560;2023-08-06T09:01:12;100005.09;;;19.59;77.31
10720;BME280;5411;58.386;15.560;2023-08-06T09:03:43;100008.91;;;19.73;78.20
10720;BME280;5411;58.386;15.560;2023-08-06T09:06:12;100007.03;;;19.84;77.57
10720;BME280;5411;58.386;15.560;2023-08-06T09:08:51;99995.06;;;19.95;76.60
10720;BME280;5411;58.386;15.560;2023-08-06T09:11:22;99988.81;;;19.95;76.19
10720;BME280;5411;58.386;15.560;2023-08-06T09:13:53;99984.72;;;20.02;75.02
10720;BME280;5411;58.386;15.560;2023-08-06T09:16:23;99977.44;;;19.82;74.78
10720;BME280;5411;58.386;15.560;2023-08-06T09:18:52;99969.28;;;19.77;76.36
10720;BME280;5411;58.386;15.560;2023-08-06T09:21:23;99967.63;;;19.71;76.49
10720;BME280;5411;58.386;15.560;2023-08-06T09:23:54;99958.41;;;19.72;77.12
10720;BME280;5411;58.386;15.560;2023-08-06T09:26:23;99960.06;;;19.68;77.36
10720;BME280;5411;58.386;15.560;2023-08-06T09:28:59;99950.84;;;19.69;76.23
10720;BME280;5411;58.386;15.560;2023-08-06T09:31:33;99955.19;;;19.70;76.92
10720;BME280;5411;58.386;15.560;2023-08-06T09:34:02;99954.88;;;19.72;73.98
10720;BME280;5411;58.386;15.560;2023-08-06T09:36:31;99942.41;;;19.66;76.94
10720;BME280;5411;58.386;15.560;2023-08-06T09:39:12;99933.47;;;19.70;76.48
10720;BME280;5411;58.386;15.560;2023-08-06T09:41:41;99931.53;;;19.76;76.44
10720;BME280;5411;58.386;15.560;2023-08-06T09:44:19;99933.41;;;19.85;76.32
10720;BME280;5411;58.386;15.560;2023-08-06T09:46:50;99914.38;;;20.01;76.63
10720;BME280;5411;58.386;15.560;2023-08-06T09:49:24;99915.47;;;20.05;76.00
10720;BME280;5411;58.386;15.560;2023-08-06T09:51:54;99910.31;;;19.88;76.09
10720;BME280;5411;58.386;15.560;2023-08-06T09:54:26;99901.66;;;19.81;76.78
10720;BME280;5411;58.386;15.560;2023-08-06T09:56:59;99903.81;;;19.89;77.35
10720;BME280;5411;58.386;15.560;2023-08-06T09:59:30;99902.72;;;19.90;77.03
10720;BME280;5411;58.386;15.560;2023-08-06T10:02:00;99905.19;;;19.81;77.18
10720;BME280;5411;58.386;15.560;2023-08-06T10:04:39;99898.69;;;19.72;77.39
10720;BME280;5411;58.386;15.560;2023-08-06T10:07:08;99900.88;;;19.60;78.07
10720;BME280;5411;58.386;15.560;2023-08-06T10:09:39;99900.34;;;19.58;78.30
10720;BME280;5411;58.386;15.560;2023-08-06T10:12:07;99901.16;;;19.58;77.87
10720;BME280;5411;58.386;15.560;2023-08-06T10:14:40;99893.53;;;19.61;77.95
10720;BME280;5411;58.386;15.560;2023-08-06T10:17:20;99888.41;;;19.54;78.75
10720;BME280;5411;58.386;15.560;2023-08-06T10:19:54;99889.50;;;19.53;78.13
10720;BME280;5411;58.386;15.560;2023-08-06T10:22:23;99885.44;;;19.55;78.79
10720;BME280;5411;58.386;15.560;2023-08-06T10:24:58;99897.34;;;19.65;79.33
10720;BME280;5411;58.386;15.560;2023-08-06T10:27:33;99900.88;;;19.70;78.46
10720;BME280;5411;58.386;15.560;2023-08-06T10:30:26;99907.66;;;19.68;77.71
10720;BME280;5411;58.386;15.560;2023-08-06T10:32:55;99906.31;;;19.65;78.82
10720;BME280;5411;58.386;15.560;2023-08-06T10:35:32;99908.75;;;19.67;79.04
10720;BME280;5411;58.386;15.560;2023-08-06T10:38:08;99911.44;;;19.77;80.14
10720;BME280;5411;58.386;15.560;2023-08-06T10:40:39;99911.41;;;19.87;79.87
10720;BME280;5411;58.386;15.560;2023-08-06T10:43:24;99911.97;;;19.89;78.89
10720;BME280;5411;58.386;15.560;2023-08-06T10:45:58;99907.88;;;19.86;78.61
10720;BME280;5411;58.386;15.560;2023-08-06T10:48:29;99904.63;;;19.84;78.82
10720;BME280;5411;58.386;15.560;2023-08-06T10:51:00;99901.41;;;19.82;77.62
10720;BME280;5411;58.386;15.560;2023-08-06T10:53:31;99904.94;;;19.78;78.53
10720;BME280;5411;58.386;15.560;2023-08-06T10:56:00;99910.09;;;19.79;79.44
10720;BME280;5411;58.386;15.560;2023-08-06T10:58:31;99911.19;;;19.83;79.98
10720;BME280;5411;58.386;15.560;2023-08-06T11:01:02;99904.63;;;19.84;79.63
10720;BME280;5411;58.386;15.560;2023-08-06T11:03:31;99909.50;;;19.87;79.97
10720;BME280;5411;58.386;15.560;2023-08-06T11:06:01;99900.59;;;19.82;79.24
10720;BME280;5411;58.386;15.560;2023-08-06T11:08:33;99897.88;;;19.72;79.18
10720;BME280;5411;58.386;15.560;2023-08-06T11:11:09;99896.53;;;19.59;81.49
10720;BME280;5411;58.386;15.560;2023-08-06T11:13:39;99889.47;;;19.58;81.88
10720;BME280;5411;58.386;15.560;2023-08-06T11:16:12;99884.34;;;19.51;81.86
10720;BME280;5411;58.386;15.560;2023-08-06T11:18:43;99884.56;;;19.45;83.01
10720;BME280;5411;58.386;15.560;2023-08-06T11:21:11;99881.63;;;19.41;83.03
10720;BME280;5411;58.386;15.560;2023-08-06T11:23:40;99874.28;;;19.37;84.85
10720;BME280;5411;58.386;15.560;2023-08-06T11:26:08;99880.25;;;19.29;83.95
10720;BME280;5411;58.386;15.560;2023-08-06T11:28:40;99871.56;;;19.27;85.91
10720;BME280;5411;58.386;15.560;2023-08-06T11:31:19;99876.72;;;19.23;87.74
10720;BME280;5411;58.386;15.560;2023-08-06T11:33:48;99874.00;;;19.18;86.93
10720;BME280;5411;58.386;15.560;2023-08-06T11:36:16;99879.72;;;19.16;88.89
10720;BME280;5411;58.386;15.560;2023-08-06T11:38:44;99884.88;;;19.13;87.60
10720;BME280;5411;58.386;15.560;2023-08-06T11:41:15;99881.31;;;19.07;89.38
10720;BME280;5411;58.386;15.560;2023-08-06T11:43:46;99876.44;;;18.99;90.09
10720;BME280;5411;58.386;15.560;2023-08-06T11:46:14;99883.22;;;18.97;91.00
10720;BME280;5411;58.386;15.560;2023-08-06T11:48:54;99871.53;;;18.91;92.96
10720;BME280;5411;58.386;15.560;2023-08-06T11:51:23;99864.78;;;18.89;94.37
10720;BME280;5411;58.386;15.560;2023-08-06T11:53:55;99869.13;;;18.90;95.45
10720;BME280;5411;58.386;15.560;2023-08-06T11:56:24;99867.75;;;18.82;96.06
10720;BME280;5411;58.386;15.560;2023-08-06T11:59:04;99861.50;;;18.81;97.34
10720;BME280;5411;58.386;15.560;2023-08-06T12:01:35;99863.41;;;18.81;98.20
10720;BME280;5411;58.386;15.560;2023-08-06T12:04:06;99859.88;;;18.80;98.96
10720;BME280;5411;58.386;15.560;2023-08-06T12:06:42;99857.19;;;18.75;99.85
10720;BME280;5411;58.386;15.560;2023-08-06T12:09:11;99846.59;;;18.69;100.00
10720;BME280;5411;58.386;15.560;2023-08-06T12:11:41;99841.91;;;18.54;100.00
10720;BME280;5411;58.386;15.560;2023-08-06T12:14:09;99841.38;;;18.47;100.00
10720;BME280;5411;58.386;15.560;2023-08-06T12:16:37;99837.00;;;18.41;100.00
10720;BME280;5411;58.386;15.560;2023-08-06T12:21:58;99831.88;;;18.34;100.00
10720;BME280;5411;58.386;15.560;2023-08-06T12:24:27;99824.78;;;18.23;100.00
10720;BME280;5411;58.386;15.560;2023-08-06T12:26:58;99814.47;;;18.10;100.00
10720;BME280;5411;58.386;15.560;2023-08-06T12:29:28;99810.34;;;18.02;100.00
10720;BME280;5411;58.386;15.560;2023-08-06T12:31:58;99800.31;;;17.98;100.00
10720;BME280;5411;58.386;15.560;2023-08-06T12:34:26;99791.66;;;17.96;100.00
10720;BME280;5411;58.386;15.560;2023-08-06T12:37:03;99786.50;;;17.94;100.00
10720;BME280;5411;58.386;15.560;2023-08-06T12:39:32;99787.28;;;17.90;100.00
10720;BME280;5411;58.386;15.560;2023-08-06T12:42:00;99782.97;;;17.89;100.00
10720;BME280;5411;58.386;15.560;2023-08-06T12:44:36;99773.75;;;17.90;100.00
10720;BME280;5411;58.386;15.560;2023-08-06T12:47:06;99773.47;;;17.86;100.00
10720;BME280;5411;58.386;15.560;2023-08-06T12:49:35;99758.00;;;17.76;100.00
10720;BME280;5411;58.386;15.560;2023-08-06T12:52:07;99762.88;;;17.74;100.00
10720;BME280;5411;58.386;15.560;2023-08-06T12:54:36;99755.81;;;17.68;100.00
10720;BME280;5411;58.386;15.560;2023-08-06T12:57:07;99744.97;;;17.63;100.00
10720;BME280;5411;58.386;15.560;2023-08-06T12:59:35;99741.13;;;17.59;100.00
10720;BME280;5411;58.386;15.560;2023-08-06T13:02:04;99727.84;;;17.58;100.00
10720;BME280;5411;58.386;15.560;2023-08-06T13:04:32;99727.59;;;17.59;100.00
10720;BME280;5411;58.386;15.560;2023-08-06T13:07:01;99727.59;;;17.54;100.00